Date,TemperatureHighF,TemperatureAvgF,TemperatureLowF,DewpointHighF,DewpointAvgF,DewpointLowF,HumidityHigh,HumidityAvg,HumidityLow,PressureMaxIn,PressureMinIn,WindSpeedMaxMPH,WindSpeedAvgMPH,GustSpeedMaxMPH,PrecipitationSumIn
2013-1-1,39,36,28,32,29,19,83,78,67,30.03,29.88,9,0,11,0.07
2013-1-2,30,26,22,20,18,16,80,71,60,30.23,29.99,16,1,16,0.00
2013-1-3,32,26,20,22,18,15,83,73,58,30.23,30.12,12,0,12,0.00
2013-1-4,36,32,29,26,24,21,77,71,65,30.14,30.02,15,0,18,0.00
2013-1-5,38,32,28,27,24,21,81,71,60,30.36,30.07,17,0,17,0.00
2013-1-6,44,37,31,34,30,25,98,78,57,30.24,30.01,6,0,6,0.00
2013-1-7,43,37,30,33,30,26,85,75,60,30.41,30.10,17,0,17,0.00
2013-1-8,46,36,27,36,30,24,92,81,64,30.42,30.36,6,0,6,0.00
2013-1-9,47,39,29,40,35,28,97,86,76,30.40,30.17,6,0,8,0.00
2013-1-10,47,41,36,35,30,28,76,67,55,30.54,30.30,19,0,19,0.00
2013-1-11,43,40,33,43,35,27,100,85,69,30.52,30.08,6,0,6,0.46
2013-1-12,46,43,41,46,43,41,100,100,99,30.17,30.09,3,0,3,0.00
2013-1-13,48,44,42,48,44,42,100,100,100,30.15,29.98,3,0,3,0.01
2013-1-14,51,48,39,51,45,34,100,92,62,30.29,29.92,16,0,16,0.11
2013-1-15,39,36,33,38,32,30,98,88,78,30.35,30.19,16,0,17,0.23
2013-1-16,35,33,32,35,33,31,100,100,96,30.19,29.82,13,0,13,0.81
2013-1-17,40,37,34,36,32,30,100,83,72,30.11,29.94,18,0,18,0.01
2013-1-18,34,29,24,31,19,13,87,68,52,30.49,30.00,30,3,30,0.00
2013-1-19,50,38,26,32,28,16,84,67,48,30.41,29.93,11,0,11,0.00
2013-1-20,53,41,28,36,27,13,78,58,34,30.06,29.75,23,2,23,0.00
2013-1-21,30,26,20,23,16,11,87,65,54,30.11,29.87,21,1,21,0.00
2013-1-22,23,16,10,12,2,-2,67,54,43,30.27,29.89,22,4,24,0.00
2013-1-23,19,12,8,6,2,-1,78,64,50,30.30,30.18,14,1,14,0.00
2013-1-24,22,16,12,8,5,2,82,62,42,30.47,30.13,30,2,30,0.00
2013-1-25,21,15,10,14,7,2,94,72,50,30.48,30.08,14,0,14,0.00
2013-1-26,25,17,11,14,11,8,94,78,60,30.42,30.08,21,1,21,0.00
2013-1-27,32,23,15,20,15,9,81,71,57,30.58,30.42,14,0,14,0.00
2013-1-28,34,30,24,34,28,17,100,92,74,30.52,30.04,3,0,3,0.18
2013-1-29,49,42,33,47,41,33,100,98,90,30.16,30.02,4,0,4,0.00
2013-1-30,66,52,42,62,52,42,100,98,86,30.04,29.32,16,0,16,0.55
2013-1-31,60,41,26,60,35,14,100,79,53,29.84,29.07,23,3,23,0.09
2013-2-1,28,25,19,21,13,8,89,62,48,30.30,29.82,30,2,30,0.00
2013-2-2,26,21,14,22,12,6,96,71,53,30.33,30.04,13,0,13,0.00
2013-2-3,29,24,20,25,22,16,97,89,71,30.04,29.82,15,0,15,0.02
2013-2-4,29,24,18,23,15,11,86,69,59,30.05,29.88,15,1,15,0.00
2013-2-5,31,29,26,29,27,22,97,92,85,29.96,29.89,1,0,1,0.01
2013-2-6,37,30,25,29,25,17,99,82,63,30.36,29.93,15,0,15,0.01
2013-2-7,32,28,23,24,18,14,76,67,55,30.49,30.27,13,0,13,0.00
2013-2-8,34,32,30,34,31,24,100,95,77,30.27,29.71,18,1,19,0.18
2013-2-9,32,26,21,32,20,12,100,79,58,30.39,29.80,31,4,31,0.03
2013-2-10,39,27,14,25,16,10,83,64,42,30.50,30.31,15,0,15,0.05
2013-2-11,47,38,31,47,38,25,100,96,79,30.32,29.67,10,0,14,0.04
2013-2-12,44,38,29,40,29,24,97,71,57,29.99,29.77,23,1,23,0.00
2013-2-13,42,33,25,32,28,22,99,82,63,29.97,29.68,2,0,2,0.00
2013-2-14,44,35,30,35,31,28,100,86,59,30.02,29.72,10,0,10,0.20
2013-2-15,55,42,32,39,34,29,97,76,51,30.02,29.91,20,0,20,0.08
2013-2-16,35,32,28,32,27,16,100,84,61,29.99,29.78,24,3,24,0.05
2013-2-17,29,25,19,17,11,5,72,56,47,30.10,29.75,25,6,25,0.00
2013-2-18,34,25,17,17,12,5,68,57,46,30.33,30.10,20,2,20,0.00
2013-2-19,41,36,29,41,31,16,99,83,59,30.20,29.71,14,0,14,0.16
2013-2-20,33,27,22,29,16,12,85,63,54,30.07,29.79,21,4,21,0.00
2013-2-21,33,27,22,19,16,12,73,64,54,30.32,30.05,25,4,25,0.00
2013-2-22,34,28,20,31,22,15,90,77,68,30.41,30.25,12,0,13,0.00
2013-2-23,44,38,33,44,38,31,100,99,90,30.26,29.81,11,0,11,0.07
2013-2-24,43,36,29,40,31,21,100,82,64,30.04,29.77,26,2,26,0.01
2013-2-25,44,35,28,32,26,22,82,72,60,30.24,30.04,18,1,18,0.00
2013-2-26,43,36,28,36,31,24,99,83,67,30.25,29.78,24,2,24,0.36
2013-2-27,49,43,36,46,40,36,100,91,77,29.78,29.50,25,2,25,0.23
2013-2-28,44,40,33,36,34,29,92,79,58,29.67,29.57,11,0,11,0.00
2013-3-1,43,36,31,33,30,28,94,80,65,29.83,29.65,17,1,19,0.00
2013-3-2,40,33,30,28,25,22,80,71,58,29.83,29.74,23,3,23,0.00
2013-3-3,35,30,25,23,21,18,79,68,58,29.82,29.74,25,3,25,0.00
2013-3-4,38,32,28,25,22,18,77,66,56,29.97,29.81,24,4,24,0.00
2013-3-5,46,36,28,31,27,23,80,69,54,30.05,29.92,22,1,22,0.00
2013-3-6,39,36,33,37,33,28,96,88,75,29.95,29.76,33,5,33,0.10
2013-3-7,45,38,34,31,29,26,83,69,56,30.10,29.94,27,7,27,0.00
2013-3-8,42,35,28,32,28,24,94,77,65,30.25,30.06,30,7,30,0.02
2013-3-9,61,44,29,30,24,16,76,49,23,30.31,30.22,15,2,15,0.00
2013-3-10,57,45,34,40,30,15,88,58,33,30.35,30.24,11,0,11,0.00
2013-3-11,57,46,37,50,43,34,100,88,61,30.29,30.03,16,0,16,0.00
2013-3-12,56,50,40,56,48,34,100,93,79,30.04,29.68,18,2,19,0.45
2013-3-13,48,39,32,35,30,23,85,71,53,29.95,29.83,17,1,18,0.00
2013-3-14,40,33,28,23,19,15,77,56,41,30.01,29.92,24,4,24,0.00
2013-3-15,50,38,25,35,24,14,70,57,47,30.03,29.73,16,1,16,0.00
2013-3-16,45,35,31,34,30,25,99,82,61,29.94,29.75,14,0,14,0.05
2013-3-17,38,32,27,31,25,21,99,78,58,30.30,29.92,20,1,20,0.06
2013-3-18,38,31,26,33,24,15,99,77,58,30.37,29.91,16,1,17,0.27
2013-3-19,50,39,33,41,33,22,100,82,43,29.91,29.70,25,1,25,0.48
2013-3-20,46,38,30,27,23,20,67,53,38,29.93,29.78,19,1,22,0.00
2013-3-21,37,31,27,29,21,13,96,68,45,29.83,29.67,20,2,20,0.01
2013-3-22,42,32,25,27,21,15,82,66,49,29.94,29.79,23,2,23,0.00
2013-3-23,47,37,29,27,23,20,72,59,44,29.96,29.87,17,2,17,0.00
2013-3-24,45,38,27,28,24,19,74,57,44,29.98,29.68,18,0,18,0.00
2013-3-25,37,34,32,34,31,27,99,90,68,29.70,29.48,15,0,15,0.38
2013-3-26,51,38,33,36,34,30,100,87,46,29.91,29.68,20,0,20,0.08
2013-3-27,50,43,33,34,31,29,91,65,49,30.04,29.92,19,1,19,0.00
2013-3-28,46,40,33,33,30,28,83,68,52,30.12,30.00,19,2,20,0.00
2013-3-29,50,44,34,34,31,27,76,62,51,30.19,30.10,21,0,21,0.00
2013-3-30,57,47,34,35,30,27,83,55,35,30.20,30.09,13,0,17,0.00
2013-3-31,55,44,37,47,36,28,100,74,49,30.12,29.71,9,0,14,0.04
2013-4-1,60,46,37,48,39,17,100,79,42,29.94,29.67,21,1,21,0.01
2013-4-2,43,35,28,22,18,16,61,50,36,30.12,29.94,21,1,21,0.00
2013-4-3,44,34,28,23,18,14,61,51,39,30.32,30.12,17,1,17,0.00
2013-4-4,52,38,26,31,22,14,69,53,36,30.42,30.09,10,0,10,0.00
2013-4-5,62,49,37,36,30,23,90,54,29,30.02,29.76,16,2,26,0.00
2013-4-6,53,42,32,29,23,18,65,48,31,30.31,30.01,20,2,20,0.00
2013-4-7,63,49,37,46,38,28,77,66,50,30.30,29.99,11,0,12,0.00
2013-4-8,76,63,50,55,50,44,80,63,44,30.07,29.95,7,0,13,0.00
2013-4-9,82,72,59,58,55,51,78,56,36,30.00,29.88,18,1,18,0.00
2013-4-10,87,73,61,65,59,54,99,63,45,29.91,29.74,38,1,38,0.68
2013-4-11,64,58,48,63,56,45,100,94,85,29.93,29.76,23,1,23,0.00
2013-4-12,48,44,42,45,43,42,100,98,90,29.92,29.68,27,2,27,0.57
2013-4-13,60,50,40,45,40,37,100,72,50,29.98,29.79,15,0,16,0.00
2013-4-14,60,48,40,40,37,31,89,66,43,30.12,29.97,21,1,28,0.00
2013-4-15,58,50,45,47,40,34,82,70,61,30.33,30.20,11,0,11,0.00
2013-4-16,68,55,45,60,50,43,94,83,69,30.33,30.13,13,0,13,0.01
2013-4-17,64,58,55,58,52,39,100,81,41,30.26,30.08,17,1,17,0.01
2013-4-18,58,54,52,58,48,42,100,82,69,30.27,30.04,14,0,14,0.04
2013-4-19,73,62,52,67,61,51,100,96,78,30.04,29.58,24,0,24,0.92
2013-4-20,57,49,42,50,38,28,98,67,43,30.32,29.71,18,0,18,0.13
2013-4-21,54,43,32,34,28,23,74,57,40,30.61,30.32,19,1,19,0.00
2013-4-22,51,44,35,40,35,30,86,71,54,30.61,30.45,20,1,20,0.00
2013-4-23,49,45,40,45,40,35,94,85,75,30.45,30.13,11,0,11,0.01
2013-4-24,71,56,40,59,51,39,100,83,66,30.14,29.79,13,0,13,0.00
2013-4-25,63,52,41,59,36,31,88,56,32,30.27,29.88,28,1,31,0.00
2013-4-26,63,50,41,41,35,29,77,57,35,30.42,30.27,17,0,17,0.00
2013-4-27,69,56,41,45,37,30,73,50,33,30.44,30.27,7,0,7,0.00
2013-4-28,63,54,47,47,40,34,80,61,39,30.30,30.17,4,0,4,0.00
2013-4-29,56,53,50,56,52,43,100,94,67,30.20,30.10,11,0,11,0.16
2013-4-30,66,55,49,54,46,35,100,77,45,30.31,30.15,17,0,17,0.01
2013-5-1,67,55,41,46,39,34,81,57,34,30.45,30.31,12,0,13,0.00
2013-5-2,70,57,42,50,45,40,98,66,40,30.45,30.31,9,0,9,0.00
2013-5-3,62,55,46,46,43,39,86,65,43,30.42,30.31,15,1,15,0.00
2013-5-4,67,54,41,49,44,40,99,73,44,30.35,30.19,13,0,13,0.00
2013-5-5,63,50,40,47,42,38,97,76,51,30.26,30.17,10,0,10,0.00
2013-5-6,66,53,42,56,49,40,99,88,69,30.23,30.11,10,0,10,0.00
2013-5-7,67,58,52,62,56,51,100,95,82,30.14,30.02,14,1,14,0.07
2013-5-8,69,61,56,65,60,56,100,96,81,30.03,29.91,11,0,11,0.67
2013-5-9,70,61,55,60,58,55,100,89,68,29.96,29.90,8,0,8,0.03
2013-5-10,81,67,55,63,60,55,100,79,49,30.00,29.88,10,0,11,0.72
2013-5-11,72,65,61,68,64,61,100,96,84,29.92,29.69,12,0,12,0.53
2013-5-12,62,58,51,56,44,30,92,62,39,29.91,29.69,21,1,21,0.03
2013-5-13,42,41,40,34,33,32,75,72,69,30.01,29.96,0,0,0,0.03
2013-5-14,61,49,36,39,34,32,88,59,36,30.18,30.04,19,0,19,0.00
2013-5-15,51,50,49,45,42,37,81,75,59,30.08,29.99,1,0,1,0.00
2013-5-16,81,69,59,69,62,54,100,81,59,29.85,29.72,5,0,5,0.08
2013-5-17,74,62,54,54,49,44,72,62,43,30.10,29.85,19,1,19,0.00
2013-5-18,68,61,57,58,53,46,98,77,63,30.27,30.18,6,0,6,0.02
2013-5-19,61,58,56,61,58,56,100,100,100,30.25,30.15,9,0,9,0.01
2013-5-20,77,67,58,72,65,58,100,94,80,30.11,29.97,4,0,4,0.01
2013-5-21,80,70,64,74,68,64,100,94,80,29.98,29.91,6,0,6,0.00
2013-5-22,87,76,67,77,72,67,100,87,55,29.90,29.80,8,0,8,0.00
2013-5-23,74,70,69,71,69,68,99,96,90,29.87,29.82,13,0,13,0.00
2013-5-24,63,53,44,63,50,40,100,90,73,30.03,29.70,27,2,27,0.10
2013-5-25,55,47,43,43,41,39,94,82,59,30.03,29.98,25,1,25,0.02
2013-5-26,70,58,44,46,40,37,79,54,35,30.21,30.05,22,1,22,0.00
2013-5-27,70,57,45,50,43,36,83,61,41,30.26,30.15,6,0,6,0.01
2013-5-28,62,58,55,62,54,47,100,87,73,30.20,30.09,5,0,5,0.23
2013-5-29,89,73,60,73,67,60,100,84,52,30.10,30.02,10,0,10,0.01
2013-5-30,92,78,66,72,69,66,100,76,47,30.14,30.06,9,0,9,0.00
2013-5-31,91,79,68,74,69,65,98,74,47,30.12,30.00,6,0,6,0.00
2013-6-1,80,73,68,72,69,67,95,87,75,30.02,29.89,3,0,3,0.00
2013-6-2,83,79,70,75,72,68,92,79,71,29.90,29.78,10,0,10,0.02
2013-6-3,78,70,66,71,68,61,100,94,73,29.88,29.80,8,0,8,0.50
2013-6-4,76,64,54,61,51,47,85,63,45,30.11,29.88,18,1,18,0.00
2013-6-5,77,63,51,56,49,43,78,60,43,30.20,30.09,3,0,3,0.00
2013-6-6,71,64,56,62,57,53,99,79,55,30.10,29.96,10,0,10,0.01
2013-6-7,65,63,60,65,63,60,100,100,100,29.89,29.60,10,1,15,2.33
2013-6-8,70,63,59,67,62,59,100,97,88,30.07,29.61,17,0,17,0.04
2013-6-9,82,69,59,68,62,57,96,80,58,30.19,30.07,3,0,3,0.00
2013-6-10,71,69,64,71,68,64,100,97,85,30.14,29.75,6,0,6,2.71
2013-6-11,72,68,65,70,66,62,100,94,77,29.77,29.72,5,0,5,0.02
2013-6-12,81,72,63,66,63,61,94,74,52,29.83,29.76,17,0,17,0.00
2013-6-13,75,67,59,72,62,58,100,87,74,29.83,29.42,14,0,14,0.51
2013-6-14,76,61,54,62,57,54,100,88,59,29.92,29.50,19,1,19,0.07
2013-6-15,81,68,59,64,59,56,92,73,49,30.03,29.92,17,0,17,0.00
2013-6-16,74,66,60,69,60,53,98,83,65,30.00,29.82,4,0,6,0.00
2013-6-17,85,74,65,73,69,65,100,84,62,29.92,29.83,6,0,6,0.00
2013-6-18,74,67,64,71,66,64,100,98,87,29.91,29.80,7,0,7,0.74
2013-6-19,77,66,57,64,58,54,100,76,48,30.14,29.86,18,0,18,0.00
2013-6-20,78,66,56,63,58,53,96,77,58,30.26,30.17,4,0,4,0.00
2013-6-21,78,67,57,63,56,48,78,69,54,30.30,30.23,5,0,5,0.00
2013-6-22,84,72,59,72,64,56,96,79,63,30.26,30.11,7,0,7,0.00
2013-6-23,83,74,64,75,70,64,100,87,72,30.19,30.04,7,0,7,0.00
2013-6-24,88,76,69,78,72,65,100,86,65,30.08,29.97,9,0,9,0.00
2013-6-25,89,76,66,76,71,64,99,84,63,30.00,29.84,14,0,14,0.06
2013-6-26,84,71,66,79,70,66,100,97,79,29.87,29.76,20,0,20,0.94
2013-6-27,85,75,68,76,72,68,100,92,70,29.81,29.54,11,0,11,0.46
2013-6-28,84,74,68,75,72,67,100,91,73,29.57,29.46,9,0,9,0.01
2013-6-29,87,75,67,72,68,66,100,82,52,29.69,29.47,6,0,6,0.00
2013-6-30,74,72,70,74,70,67,100,95,87,29.77,29.69,0,0,0,0.00
2013-7-1,74,72,70,74,72,70,100,100,99,29.94,29.85,4,0,4,1.04
2013-7-2,83,77,73,77,75,73,100,94,81,30.11,30.01,10,0,10,1.04
2013-7-3,84,77,71,78,75,70,100,94,81,30.23,30.15,1,0,3,1.04
2013-7-4,87,79,73,79,75,73,100,89,72,30.25,30.15,10,0,10,0.00
2013-7-5,86,78,73,79,75,73,100,92,74,30.20,30.17,6,0,6,0.00
2013-7-6,92,83,74,80,77,74,100,83,61,30.15,30.03,6,0,7,0.00
2013-7-7,90,80,73,81,76,72,97,86,66,30.08,29.95,10,0,10,0.00
2013-7-8,74,69,68,73,69,68,100,100,97,30.06,30.00,1,0,1,0.04
2013-7-9,85,77,69,78,74,68,100,89,77,30.07,29.99,6,0,6,0.01
2013-7-10,87,78,74,79,76,73,100,92,75,30.00,29.81,10,0,10,0.00
2013-7-11,77,74,73,76,73,72,99,96,91,29.87,29.80,3,0,3,0.00
2013-7-12,68,68,68,68,68,68,100,100,100,30.03,30.02,2,0,3,0.95
2013-7-13,88,75,68,79,73,68,100,94,70,30.28,30.02,6,0,6,0.02
2013-7-14,90,79,72,79,75,72,100,88,66,30.34,30.24,6,0,6,0.00
2013-7-15,93,80,73,81,74,71,95,84,63,30.27,30.14,9,0,9,0.00
2013-7-16,93,82,74,78,74,72,97,78,57,30.21,30.13,16,1,16,0.00
2013-7-17,95,82,72,79,74,70,94,78,52,30.19,30.06,10,0,10,0.00
2013-7-18,95,84,76,83,78,72,91,80,61,30.08,29.96,9,0,9,0.00
2013-7-19,93,85,78,83,80,77,100,86,71,29.99,29.80,10,0,10,0.00
2013-7-20,90,81,74,80,75,71,91,82,67,29.85,29.75,11,0,11,0.00
2013-7-21,87,79,73,76,73,70,95,83,64,29.93,29.83,6,0,6,0.00
2013-7-22,84,75,71,81,74,70,100,95,83,29.93,29.75,11,0,13,0.98
2013-7-23,84,76,70,78,73,70,100,91,77,29.75,29.58,17,0,19,1.67
2013-7-24,79,73,64,72,67,56,95,82,65,29.93,29.63,16,0,16,0.00
2013-7-25,71,64,56,64,58,53,93,82,74,30.03,29.91,14,0,14,0.00
2013-7-26,82,69,61,67,62,60,99,80,54,30.06,30.00,9,0,9,0.00
2013-7-27,83,73,64,72,67,60,100,81,63,30.04,29.91,5,0,6,0.00
2013-7-28,80,72,65,76,70,65,100,92,81,29.96,29.87,3,0,4,0.29
2013-7-29,82,72,65,68,63,58,100,78,49,30.12,29.95,4,0,11,0.03
2013-7-30,79,69,60,65,61,57,89,75,57,30.19,30.12,10,0,10,0.00
2013-7-31,80,71,60,69,64,59,98,81,60,30.16,30.02,4,0,4,0.00
2013-8-1,72,69,65,72,68,64,100,97,86,30.02,29.81,2,0,4,1.14
2013-8-2,82,73,66,71,68,62,100,85,63,29.93,29.81,7,0,9,0.01
2013-8-3,75,69,65,70,66,62,99,91,81,29.93,29.87,6,0,6,0.06
2013-8-4,78,69,61,65,62,57,100,81,55,30.00,29.86,16,0,16,0.00
2013-8-5,78,66,56,60,56,53,97,74,50,30.09,30.00,12,0,12,0.00
2013-8-6,76,67,58,67,62,55,98,83,63,30.10,30.03,7,0,7,0.00
2013-8-7,73,69,66,71,68,65,100,95,89,30.11,30.02,10,0,10,0.10
2013-8-8,84,75,68,78,73,68,100,93,74,30.04,29.96,12,0,12,0.08
2013-8-9,82,77,74,79,76,73,100,97,87,29.99,29.81,7,0,7,0.31
2013-8-10,83,74,68,74,69,66,100,86,63,30.04,29.88,6,0,9,0.00
2013-8-11,84,72,61,72,66,59,99,81,61,30.12,30.00,5,0,5,0.00
2013-8-12,84,74,69,72,69,66,100,87,62,30.03,29.91,12,0,12,0.00
2013-8-13,74,69,64,72,69,64,100,99,90,29.91,29.74,9,0,11,0.73
2013-8-14,73,65,56,66,56,51,87,73,58,30.07,29.77,26,1,26,0.00
2013-8-15,77,64,53,58,55,52,97,75,49,30.17,30.06,10,0,10,0.00
2013-8-16,80,66,54,62,57,53,99,75,47,30.20,30.12,9,0,9,0.00
2013-8-17,79,68,57,64,60,56,100,77,51,30.26,30.20,7,0,7,0.00
2013-8-18,74,67,63,66,62,59,98,85,65,30.25,30.13,11,0,11,0.00
2013-8-19,74,67,60,70,64,60,100,91,79,30.15,30.05,5,0,5,0.00
2013-8-20,85,73,64,73,68,64,100,86,63,30.14,30.06,6,0,6,0.00
2013-8-21,86,74,64,74,69,62,100,85,56,30.19,30.05,6,0,6,0.00
2013-8-22,80,75,72,76,73,72,100,95,84,30.07,29.92,12,0,12,0.28
2013-8-23,73,70,64,68,66,60,100,87,76,30.10,29.93,10,0,12,0.00
2013-8-24,80,68,57,61,58,53,96,73,41,30.34,30.09,14,0,14,0.00
2013-8-25,80,66,54,64,59,54,100,79,53,30.41,30.24,5,0,5,0.00
2013-8-26,83,71,62,72,65,58,90,81,67,30.25,29.92,10,0,10,0.00
2013-8-27,87,77,70,73,70,67,93,80,58,29.93,29.85,15,0,15,0.00
2013-8-28,72,71,69,72,71,69,100,99,93,29.89,29.82,8,0,8,1.36
2013-8-29,79,74,69,73,71,67,96,90,80,30.02,29.97,6,0,6,0.00
2013-8-30,81,72,65,76,70,65,100,94,84,30.03,29.86,7,0,7,0.04
2013-8-31,84,76,70,78,74,70,100,93,81,29.88,29.78,6,0,6,0.00
2013-9-1,86,78,72,78,75,72,100,91,72,29.83,29.75,7,0,7,0.00
2013-9-2,81,75,70,76,74,66,100,95,83,29.78,29.69,7,0,7,0.00
2013-9-3,80,72,64,71,65,58,100,79,56,29.91,29.70,11,0,14,0.00
2013-9-4,79,67,58,64,60,57,97,80,56,30.04,29.90,10,0,10,0.00
2013-9-5,77,66,58,66,58,50,94,77,49,30.15,29.96,18,0,18,0.00
2013-9-6,71,59,49,51,47,42,89,67,40,30.25,30.14,12,0,12,0.00
2013-9-7,78,62,48,61,54,47,99,77,49,30.14,29.91,5,0,5,0.00
2013-9-8,80,70,58,69,62,50,96,77,61,30.07,29.85,18,0,18,0.00
2013-9-9,73,62,48,65,56,46,94,81,69,30.22,30.07,7,0,7,0.00
2013-9-10,85,75,66,78,72,64,99,91,78,30.17,30.06,6,0,6,0.00
2013-9-11,89,80,71,81,76,71,100,88,72,30.12,29.98,7,0,7,0.00
2013-9-12,84,75,68,78,73,68,100,92,77,29.99,29.70,13,0,13,0.07
2013-9-13,73,68,64,68,63,56,100,88,62,29.77,29.65,18,0,20,0.07
2013-9-14,62,56,47,52,50,45,96,80,68,30.16,29.94,21,1,21,0.00
2013-9-15,70,57,44,58,52,44,100,84,61,30.24,30.09,7,0,7,0.00
2013-9-16,69,61,54,61,57,50,100,88,69,30.24,30.03,12,0,13,0.07
2013-9-17,64,53,43,50,44,41,96,75,50,30.43,30.24,17,0,17,0.00
2013-9-18,68,54,43,52,47,42,99,79,49,30.35,30.19,4,0,4,0.00
2013-9-19,74,59,47,60,54,47,100,84,57,30.20,30.07,4,0,4,0.00
2013-9-20,76,63,53,64,59,53,100,86,61,30.09,29.97,5,0,6,0.00
2013-9-21,75,65,54,67,61,54,100,88,66,30.00,29.67,10,0,12,0.68
2013-9-22,65,60,52,63,54,46,100,83,59,29.93,29.67,19,0,19,0.16
2013-9-23,64,54,45,50,46,42,90,75,59,30.06,29.93,19,1,20,0.00
2013-9-24,72,54,41,55,48,40,100,81,52,30.08,29.92,16,0,16,0.00
2013-9-25,72,57,45,54,49,44,94,76,46,29.98,29.88,5,0,6,0.00
2013-9-26,70,59,48,60,54,48,100,86,64,30.08,29.93,5,0,5,0.00
2013-9-27,67,60,54,58,56,53,100,85,64,30.26,30.08,8,0,8,0.00
2013-9-28,70,60,54,57,54,51,100,82,57,30.31,30.23,11,0,11,0.00
2013-9-29,68,58,49,59,54,48,100,85,65,30.23,30.07,10,0,10,0.00
2013-9-30,70,58,48,58,53,48,100,85,63,30.09,29.98,4,0,7,0.00
2013-10-1,77,63,52,65,58,52,99,85,62,30.04,29.93,10,0,10,0.00
2013-10-2,81,68,57,67,62,56,100,84,61,30.03,29.94,11,0,11,0.00
2013-10-3,79,69,60,67,63,59,100,85,63,30.12,30.02,7,0,8,0.00
2013-10-4,82,71,62,70,67,62,100,87,66,30.07,29.97,6,0,6,0.00
2013-10-5,82,73,65,71,68,64,100,87,66,30.08,29.99,7,0,7,0.00
2013-10-6,78,69,65,73,68,65,100,95,83,30.05,29.95,11,1,11,0.00
2013-10-7,74,65,54,73,64,50,100,97,85,30.01,29.73,14,0,14,0.65
2013-10-8,64,56,47,52,49,46,95,77,59,30.31,30.00,17,0,17,0.00
2013-10-9,59,54,47,52,48,44,88,82,74,30.37,30.24,15,0,15,0.00
2013-10-10,58,54,50,57,53,49,100,96,84,30.24,30.00,19,0,19,0.52
2013-10-11,62,59,56,61,59,56,100,99,95,30.05,29.96,13,0,13,1.23
2013-10-12,68,62,58,61,55,46,96,78,59,30.22,30.02,15,0,15,0.00
2013-10-13,64,58,52,57,53,49,95,82,63,30.35,30.21,18,0,18,0.00
2013-10-14,65,55,46,54,51,46,100,88,62,30.35,30.23,3,0,3,0.00
2013-10-15,68,56,46,57,51,46,100,83,55,30.25,30.10,8,0,8,0.00
2013-10-16,64,57,51,61,56,50,100,96,88,30.11,29.92,0,0,0,0.00
2013-10-17,70,64,58,65,62,58,100,95,83,29.92,29.70,5,0,5,0.06
2013-10-18,63,56,48,62,48,43,98,76,61,30.00,29.73,14,0,14,0.01
2013-10-19,62,52,44,56,48,42,99,86,64,30.00,29.76,2,0,2,0.05
2013-10-20,58,50,44,52,42,39,99,75,53,30.08,29.80,15,0,15,0.00
2013-10-21,63,52,41,48,43,38,94,74,51,30.16,29.97,13,0,13,0.00
2013-10-22,61,52,44,54,47,35,99,83,60,29.97,29.78,2,0,2,0.00
2013-10-23,54,46,40,43,38,35,89,74,60,29.83,29.63,16,0,16,0.00
2013-10-24,49,41,36,37,34,30,93,76,53,30.07,29.80,12,0,12,0.00
2013-10-25,51,41,32,38,34,30,92,76,57,30.26,30.07,16,0,16,0.00
2013-10-26,52,43,31,37,34,29,94,72,51,30.26,29.91,17,0,17,0.00
2013-10-27,53,46,39,38,35,33,83,66,55,30.15,29.90,15,0,15,0.00
2013-10-28,59,46,34,42,36,31,89,71,52,30.31,30.14,2,0,2,0.00
2013-10-29,56,47,39,44,39,34,92,76,59,30.40,30.31,8,0,8,0.00
2013-10-30,57,49,42,54,48,40,98,94,89,30.35,30.18,1,0,1,0.00
2013-10-31,66,58,50,62,56,50,100,95,82,30.22,29.78,1,0,1,0.00
2013-11-1,67,62,56,65,60,56,100,93,75,29.78,29.55,15,0,15,0.33
2013-11-2,65,56,48,56,48,41,100,78,59,29.81,29.62,5,0,5,0.00
2013-11-3,49,43,31,42,34,22,90,71,47,30.47,29.81,24,2,24,0.00
2013-11-4,43,35,27,29,23,20,78,62,41,30.66,30.46,13,0,13,0.00
2013-11-5,54,44,31,45,37,26,91,78,67,30.64,30.48,3,0,3,0.00
2013-11-6,62,54,47,53,49,44,94,84,68,30.49,30.06,4,0,4,0.00
2013-11-7,59,52,42,57,50,36,100,93,76,30.06,29.80,22,0,22,0.06
2013-11-8,46,40,34,36,31,28,82,70,55,30.27,29.99,14,0,14,0.00
2013-11-9,48,40,30,36,31,26,87,71,53,30.33,30.00,5,0,5,0.00
2013-11-10,57,46,38,41,34,31,85,64,49,30.14,29.89,19,0,19,0.00
2013-11-11,52,46,36,39,34,29,80,64,55,30.25,29.99,18,0,18,0.00
2013-11-12,48,36,25,39,25,16,85,65,53,30.35,29.95,25,3,25,0.00
2013-11-13,37,30,24,22,18,15,74,63,47,30.43,30.33,23,1,23,0.00
2013-11-14,52,38,27,30,23,19,77,56,28,30.33,30.21,11,0,11,0.00
2013-11-15,57,44,34,36,32,28,89,66,37,30.27,30.17,1,0,1,0.00
2013-11-16,56,48,41,49,44,33,97,87,63,30.34,30.25,6,0,6,0.01
2013-11-17,64,56,48,60,54,48,100,92,78,30.26,29.74,10,0,10,0.00
2013-11-18,62,57,47,61,43,30,100,63,40,29.85,29.64,19,0,19,0.05
2013-11-19,47,41,32,33,28,23,70,59,52,30.36,29.85,30,2,30,0.00
2013-11-20,43,34,26,24,20,12,82,57,35,30.59,30.36,14,0,14,0.00
2013-11-21,50,40,25,42,30,16,82,70,49,30.61,30.40,3,0,3,0.00
2013-11-22,55,50,47,52,48,42,100,92,83,30.40,29.96,9,0,9,0.00
2013-11-23,50,39,27,49,29,16,99,68,51,30.10,29.97,24,3,24,0.00
2013-11-24,27,23,20,16,6,4,62,47,39,30.45,30.10,28,4,28,0.00
2013-11-25,33,25,18,20,15,8,78,64,49,30.54,30.35,6,0,6,0.00
2013-11-26,48,34,30,48,29,20,100,83,63,30.36,29.65,21,0,21,0.04
2013-11-27,60,40,28,60,38,20,100,93,68,29.86,29.43,20,3,23,0.04
2013-11-28,33,29,26,22,20,18,77,68,61,30.49,29.86,23,2,23,0.00
2013-11-29,37,29,23,25,21,18,83,73,56,30.74,30.47,15,0,15,0.00
2013-11-30,36,28,18,29,22,14,87,79,71,30.74,30.38,2,0,3,0.00
2013-12-1,45,36,26,34,29,24,93,78,62,30.38,30.03,0,0,0,0.00
2013-12-2,48,40,36,36,33,30,86,77,61,30.04,29.89,1,0,1,0.00
2013-12-3,51,41,36,41,36,33,90,81,63,30.02,29.89,0,0,0,0.00
2013-12-4,51,44,35,45,40,33,95,85,75,30.12,30.01,3,0,4,0.00
2013-12-5,57,52,47,57,51,45,100,99,89,30.10,29.92,3,0,3,0.00
2013-12-6,60,46,34,60,46,34,100,100,99,30.16,29.86,21,2,23,0.55
2013-12-7,37,33,28,35,30,25,100,89,73,30.53,30.08,18,1,19,0.01
2013-12-8,28,26,23,28,22,18,99,88,73,30.60,30.33,5,0,10,0.00
2013-12-9,34,32,28,34,32,28,100,100,99,30.33,30.01,7,0,7,0.18
2013-12-10,31,28,21,31,28,19,100,98,93,30.19,29.94,9,0,9,0.00
2013-12-11,30,23,16,22,19,14,96,84,69,30.38,30.19,4,0,4,0.00
2013-12-12,24,20,17,19,14,8,95,76,59,30.40,30.20,16,0,16,0.00
2013-12-13,32,26,18,21,16,8,78,67,59,30.35,30.17,14,0,14,0.00
2013-12-14,30,27,25,30,24,20,99,88,70,30.43,29.71,20,1,20,0.00
2013-12-15,36,31,26,34,28,22,100,91,72,29.89,29.57,17,0,17,0.15
2013-12-16,30,24,19,24,14,10,84,68,55,30.25,29.88,17,1,17,0.00
2013-12-17,28,23,19,25,21,16,96,90,72,30.22,29.96,9,0,9,0.00
2013-12-18,34,26,19,26,21,18,97,83,65,30.22,29.97,15,0,15,0.03
2013-12-19,46,34,22,33,27,19,95,77,58,30.22,30.07,4,0,4,0.37
2013-12-20,50,43,35,44,35,31,87,73,58,30.11,29.99,2,0,2,0.29
2013-12-21,63,54,44,58,50,42,97,88,76,30.01,29.90,5,0,5,0.00
2013-12-22,66,62,59,64,60,57,99,95,90,29.96,29.81,17,0,17,0.13
2013-12-23,59,52,37,59,51,32,100,95,81,30.17,29.90,22,0,22,0.69
2013-12-24,37,32,23,32,23,14,83,72,62,30.41,30.15,18,1,18,0.00
2013-12-25,27,23,17,17,12,8,74,64,55,30.56,30.40,18,1,18,0.00
2013-12-26,36,28,22,30,23,17,94,84,71,30.42,30.20,14,0,14,0.00
2013-12-27,43,32,24,27,23,19,92,70,50,30.40,30.30,13,0,13,0.00
2013-12-28,55,41,28,34,28,22,79,61,43,30.31,30.09,15,0,15,0.00
2013-12-29,44,41,37,42,37,30,100,87,59,30.09,29.46,16,0,16,1.04
2013-12-30,42,36,23,40,31,16,100,83,70,30.18,29.75,12,0,16,0.00
2013-12-31,34,26,20,28,19,14,84,74,62,30.33,30.08,10,0,14,0.00
2014-1-1,36,28,19,25,20,13,81,73,62,30.42,30.20,1,0,1,0.00
2014-1-2,30,26,18,26,23,17,96,89,77,30.20,29.65,16,0,16,0.00